Time;durP1;ratioP1;P1;durP2;ratioP2;P2;SDS_P1;SDS_P2;PMS_P1;PMS_P2;Temp;Humidity;BMP_temperature;BMP_pressure;BME280_temperature;BME280_humidity;BME280_pressure;Samples;Min_cycle;Max_cycle;Signal;HPM_P1;HPM_P2
2021/01/06 00:00:42;;;;;;;3.78;3.40;;;;;;;7.90;54.82;93808.00;5028866;28;20052;-74
2021/01/06 00:03:21;;;;;;;6.10;3.85;;;;;;;7.96;54.84;93799.81;5025662;28;20066;-74
2021/01/06 00:05:50;;;;;;;5.35;3.55;;;;;;;8.06;54.94;93802.38;5027207;28;20437;-75
2021/01/06 00:08:15;;;;;;;6.32;4.20;;;;;;;8.04;54.69;93801.88;5042573;28;20053;-74
2021/01/06 00:10:42;;;;;;;6.32;4.57;;;;;;;8.14;54.74;93798.38;5032197;28;20344;-75
2021/01/06 00:13:08;;;;;;;8.85;6.25;;;;;;;8.22;54.57;93798.59;5025517;28;20040;-74
2021/01/06 00:15:36;;;;;;;10.82;6.32;;;;;;;8.19;54.68;93793.88;5041217;28;20033;-74
2021/01/06 00:18:03;;;;;;;9.43;6.72;;;;;;;8.12;54.62;93817.06;5045933;28;20930;-74
2021/01/06 00:20:30;;;;;;;9.93;6.72;;;;;;;8.06;54.42;93801.59;5045792;28;20049;-75
2021/01/06 00:22:56;;;;;;;10.98;6.25;;;;;;;8.11;54.80;93799.69;5026206;28;20047;-74
2021/01/06 00:25:31;;;;;;;29.38;15.73;;;;;;;8.15;54.86;93790.22;5026621;28;20462;-75
2021/01/06 00:27:57;;;;;;;5.97;4.78;;;;;;;8.04;54.74;93820.28;5030817;28;20076;-75
2021/01/06 00:30:25;;;;;;;7.32;4.38;;;;;;;8.13;54.75;93813.38;5025681;28;20045;-75
2021/01/06 00:32:51;;;;;;;12.48;8.32;;;;;;;8.07;54.43;93817.09;5020513;28;20048;-74
2021/01/06 00:35:19;;;;;;;11.07;7.82;;;;;;;8.21;54.34;93827.81;5036542;28;20044;-75
2021/01/06 00:37:44;;;;;;;23.40;12.93;;;;;;;8.26;54.52;93835.69;5036621;28;20074;-75
2021/01/06 00:40:10;;;;;;;17.00;11.52;;;;;;;8.33;54.28;93824.88;5029000;28;20524;-74
2021/01/06 00:42:37;;;;;;;17.02;10.75;;;;;;;8.38;54.57;93843.28;5025182;28;20611;-74
2021/01/06 00:45:08;;;;;;;27.42;15.52;;;;;;;8.39;54.21;93847.50;5030245;28;20533;-75
2021/01/06 00:47:34;;;;;;;22.13;13.32;;;;;;;8.41;54.15;93859.31;5032737;28;20048;-75
2021/01/06 00:49:59;;;;;;;20.02;14.77;;;;;;;8.41;54.29;93855.88;5033134;28;20044;-74
2021/01/06 00:52:25;;;;;;;25.38;15.00;;;;;;;8.43;54.39;93853.78;5030321;28;20056;-75
2021/01/06 00:54:50;;;;;;;22.42;14.80;;;;;;;8.41;54.11;93850.63;5049140;28;20049;-74
2021/01/06 00:57:17;;;;;;;21.10;14.25;;;;;;;8.40;54.44;93864.88;5038783;28;20076;-75
2021/01/06 00:59:42;;;;;;;23.90;14.85;;;;;;;8.34;54.99;93858.84;5054217;28;20047;-74
2021/01/06 01:02:08;;;;;;;21.67;14.32;;;;;;;8.31;54.94;93859.38;5049233;28;20041;-74
2021/01/06 01:04:33;;;;;;;22.60;16.58;;;;;;;8.24;55.21;93849.13;5035287;28;20025;-75
2021/01/06 01:06:59;;;;;;;24.08;15.55;;;;;;;8.15;55.37;93855.25;5050462;28;20044;-74
2021/01/06 01:09:25;;;;;;;24.30;15.95;;;;;;;8.14;55.49;93859.72;5036025;28;21394;-75
2021/01/06 01:11:50;;;;;;;23.13;14.85;;;;;;;8.09;55.76;93856.31;5048798;28;21019;-74
2021/01/06 01:14:16;;;;;;;23.63;15.75;;;;;;;8.11;55.75;93857.59;5051293;28;20572;-74
2021/01/06 01:16:42;;;;;;;23.50;15.07;;;;;;;8.04;55.34;93846.59;5049443;28;20032;-74
2021/01/06 01:19:09;;;;;;;21.23;15.20;;;;;;;8.09;55.65;93857.13;5047483;28;20052;-74
2021/01/06 01:21:35;;;;;;;22.83;15.57;;;;;;;8.13;55.81;93852.09;5047872;28;20033;-74
2021/01/06 01:24:01;;;;;;;33.25;17.50;;;;;;;8.09;55.82;93846.59;5047510;28;20049;-74
2021/01/06 01:26:27;;;;;;;25.00;16.10;;;;;;;8.08;55.68;93834.47;5052531;28;20470;-75
2021/01/06 01:28:52;;;;;;;26.55;15.60;;;;;;;8.08;56.13;93839.75;5049402;28;20020;-74
2021/01/06 01:31:18;;;;;;;23.00;14.27;;;;;;;8.08;55.80;93845.00;5053704;28;20048;-75
2021/01/06 01:33:44;;;;;;;35.00;16.73;;;;;;;8.00;56.27;93837.69;5049685;28;20592;-74
2021/01/06 01:36:10;;;;;;;26.35;13.88;;;;;;;7.96;56.09;93847.19;5046781;28;20049;-75
2021/01/06 01:38:35;;;;;;;23.92;16.38;;;;;;;7.99;56.51;93846.63;5053826;28;20486;-74
2021/01/06 01:41:09;;;;;;;27.00;16.02;;;;;;;8.01;56.66;93839.25;5049227;28;20489;-75
2021/01/06 01:43:36;;;;;;;34.28;20.40;;;;;;;8.02;56.44;93846.09;5035684;28;20016;-74
2021/01/06 01:46:06;;;;;;;26.52;16.83;;;;;;;7.89;56.53;93836.16;5047217;28;20397;-74
2021/01/06 01:48:43;;;;;;;27.95;17.67;;;;;;;7.89;56.75;93841.41;5049104;28;20045;-74
2021/01/06 01:51:40;;;;;;;34.28;18.45;;;;;;;7.92;56.58;93846.13;5036414;28;20044;-74
2021/01/06 01:54:07;;;;;;;27.92;17.10;;;;;;;7.93;56.65;93860.88;5051310;28;20156;-75
2021/01/06 01:56:35;;;;;;;24.92;16.85;;;;;;;7.95;56.45;93856.13;5048773;28;20044;-74
2021/01/06 01:59:05;;;;;;;31.40;18.52;;;;;;;7.95;56.51;93831.66;5032651;28;20130;-74
2021/01/06 02:01:30;;;;;;;35.50;21.13;;;;;;;7.80;56.82;93820.16;5037750;28;20033;-74
2021/01/06 02:04:06;;;;;;;31.92;20.85;;;;;;;7.75;58.12;93822.00;5045797;28;20127;-75
2021/01/06 02:06:41;;;;;;;31.50;21.23;;;;;;;7.71;57.85;93813.09;5047588;28;20051;-74
2021/01/06 02:09:16;;;;;;;;;;;;;;;7.77;57.82;93825.16;5049217;28;20032;-75
2021/01/06 02:11:47;;;;;;;30.08;19.73;;;;;;;7.75;57.84;93820.16;5033222;28;19924;-75
2021/01/06 02:14:28;;;;;;;29.67;20.88;;;;;;;7.79;57.92;93830.94;5048944;28;20517;-75
2021/01/06 02:17:01;;;;;;;33.08;21.15;;;;;;;7.83;57.52;93837.22;5047058;28;20029;-75
2021/01/06 02:19:34;;;;;;;28.13;19.30;;;;;;;7.91;57.57;93836.69;5052252;28;20159;-74
2021/01/06 02:21:59;;;;;;;33.10;20.50;;;;;;;7.93;57.68;93831.91;5051158;28;20029;-74
2021/01/06 02:24:25;;;;;;;32.78;21.80;;;;;;;7.91;57.67;93830.63;5044526;28;20067;-75
2021/01/06 02:26:51;;;;;;;33.70;22.02;;;;;;;7.88;57.68;93821.41;5047150;28;20207;-74
2021/01/06 02:29:17;;;;;;;38.08;23.88;;;;;;;7.90;57.62;93827.22;5047015;28;20068;-74
2021/01/06 02:31:43;;;;;;;34.35;23.40;;;;;;;7.87;57.75;93811.94;5050039;28;20435;-74
2021/01/06 02:34:10;;;;;;;34.28;23.42;;;;;;;7.84;57.80;93809.88;5032368;28;20036;-74
2021/01/06 02:36:36;;;;;;;35.72;22.73;;;;;;;7.83;57.55;93805.66;5045830;28;20072;-75
2021/01/06 02:39:08;;;;;;;36.30;23.77;;;;;;;7.90;57.65;93805.38;5047587;28;20132;-74
2021/01/06 02:41:34;;;;;;;34.30;22.83;;;;;;;7.89;57.35;93825.63;5049705;28;20037;-75
2021/01/06 02:44:00;;;;;;;35.67;22.10;;;;;;;7.86;57.36;93822.75;5049543;28;20078;-75
2021/01/06 02:46:26;;;;;;;32.28;21.77;;;;;;;7.80;57.43;93806.22;5051797;28;20630;-75
2021/01/06 02:48:52;;;;;;;37.15;20.55;;;;;;;7.88;57.48;93815.38;5052138;28;20032;-75
2021/01/06 02:51:46;;;;;;;33.28;20.63;;;;;;;7.85;57.99;93798.28;5032277;28;20155;-75
2021/01/06 02:54:18;;;;;;;28.48;19.35;;;;;;;7.84;58.06;93791.44;5044612;28;20044;-74
2021/01/06 02:56:45;;;;;;;31.55;21.48;;;;;;;7.82;57.80;93798.81;5039924;28;20064;-75
2021/01/06 02:59:14;;;;;;;37.53;22.00;;;;;;;7.71;58.45;93810.47;5029894;28;20053;-74
2021/01/06 03:01:42;;;;;;;29.67;20.48;;;;;;;7.65;58.56;93793.91;5028229;28;20056;-74
2021/01/06 03:04:13;;;;;;;32.58;20.55;;;;;;;7.65;58.72;93785.22;5028040;28;20124;-74
2021/01/06 03:06:44;;;;;;;32.50;20.88;;;;;;;7.64;58.67;93808.13;5025097;28;20057;-74
2021/01/06 03:09:42;;;;;;;32.35;20.15;;;;;;;7.58;58.67;93803.13;5030846;28;20055;-74
2021/01/06 03:12:16;;;;;;;31.77;20.77;;;;;;;7.61;58.84;93805.25;5018422;28;20461;-74
2021/01/06 03:14:42;;;;;;;32.40;20.70;;;;;;;7.63;58.93;93789.97;5032408;28;20080;-74
2021/01/06 03:17:09;;;;;;;32.03;21.33;;;;;;;7.66;58.73;93784.19;5023885;28;20471;-75
2021/01/06 03:19:41;;;;;;;33.03;22.83;;;;;;;7.60;58.56;93786.03;5029805;28;20032;-74
2021/01/06 03:22:09;;;;;;;38.05;22.73;;;;;;;7.59;58.67;93781.84;5026801;28;20036;-75
2021/01/06 03:24:44;;;;;;;35.97;22.88;;;;;;;7.66;59.04;93777.09;5028567;28;20045;-75
2021/01/06 03:27:12;;;;;;;35.15;22.90;;;;;;;7.64;58.78;93784.44;5039514;28;20938;-74
2021/01/06 03:29:39;;;;;;;35.20;23.73;;;;;;;7.62;58.68;93788.41;5047307;28;20045;-75
2021/01/06 03:32:15;;;;;;;35.20;23.05;;;;;;;7.54;58.87;93776.59;5046714;28;20060;-75
2021/01/06 03:34:51;;;;;;;42.72;28.92;;;;;;;7.61;58.83;93782.38;5048261;28;20354;-74
2021/01/06 03:37:29;;;;;;;40.72;25.25;;;;;;;7.53;59.13;93790.00;5046526;28;20772;-74
2021/01/06 03:40:09;;;;;;;33.13;22.83;;;;;;;7.47;58.90;93799.00;5031459;28;20053;-74
2021/01/06 03:42:35;;;;;;;34.90;24.45;;;;;;;7.51;59.22;93802.66;5057536;28;20170;-75
2021/01/06 03:45:03;;;;;;;36.55;22.77;;;;;;;7.50;58.88;93804.50;5033735;28;20070;-75
2021/01/06 03:47:33;;;;;;;39.60;23.98;;;;;;;7.47;58.95;93797.16;5048119;28;20032;-74
2021/01/06 03:50:17;;;;;;;52.08;32.97;;;;;;;7.45;59.06;93791.38;5046110;28;20036;-74
2021/01/06 03:53:13;;;;;;;32.72;22.13;;;;;;;7.47;59.11;93775.31;5049121;28;20481;-75
2021/01/06 03:56:02;;;;;;;37.72;22.58;;;;;;;7.49;58.96;93796.88;5045646;28;20063;-75
2021/01/06 03:58:32;;;;;;;44.40;23.60;;;;;;;7.42;59.17;93799.00;5050747;28;20113;-75
2021/01/06 04:01:17;;;;;;;33.33;22.58;;;;;;;7.43;59.53;93796.09;5047875;28;20060;-75
2021/01/06 04:03:50;;;;;;;39.63;23.53;;;;;;;7.45;59.26;93796.63;5046515;28;20036;-75
2021/01/06 04:06:18;;;;;;;29.13;20.55;;;;;;;7.51;59.18;93815.81;5044382;28;20041;-75
2021/01/06 04:08:50;;;;;;;34.75;21.90;;;;;;;7.51;59.09;93807.91;5049771;28;20047;-75
2021/01/06 04:11:21;;;;;;;40.42;23.65;;;;;;;7.50;59.22;93806.34;5047156;28;20037;-74
2021/01/06 04:13:47;;;;;;;35.03;21.50;;;;;;;7.55;59.19;93812.38;5047150;28;20052;-75
2021/01/06 04:16:13;;;;;;;31.95;22.77;;;;;;;7.54;59.12;93813.41;5046600;28;20471;-75
2021/01/06 04:18:40;;;;;;;38.80;23.40;;;;;;;7.58;58.93;93816.28;5015013;28;20041;-74
2021/01/06 04:21:06;;;;;;;34.05;22.10;;;;;;;7.60;58.94;93822.06;5026764;28;20055;-75
2021/01/06 04:23:31;;;;;;;39.17;24.35;;;;;;;7.60;58.67;93832.59;5030897;28;20041;-74
2021/01/06 04:25:57;;;;;;;38.92;24.00;;;;;;;7.69;58.72;93841.50;5029357;28;20017;-75
2021/01/06 04:28:33;;;;;;;38.67;23.50;;;;;;;7.69;58.72;93849.38;5029920;28;20053;-74
2021/01/06 04:31:13;;;;;;;37.92;24.13;;;;;;;7.65;58.62;93849.16;5029809;28;20947;-74
2021/01/06 04:33:41;;;;;;;38.58;23.73;;;;;;;7.66;58.59;93824.44;5021115;28;20072;-74
2021/01/06 04:36:15;;;;;;;75.45;35.75;;;;;;;7.63;58.69;93834.69;5025835;28;20076;-75
2021/01/06 04:38:44;;;;;;;34.55;22.83;;;;;;;7.56;58.51;93842.88;5033490;28;20040;-75
2021/01/06 04:41:36;;;;;;;32.03;22.08;;;;;;;7.56;58.47;93848.13;5048494;28;20039;-74
2021/01/06 04:44:21;;;;;;;36.63;21.20;;;;;;;7.55;58.91;93845.75;5046813;28;20040;-74
2021/01/06 04:47:05;;;;;;;34.67;22.55;;;;;;;7.55;59.29;93843.13;5050852;28;20024;-75
2021/01/06 04:50:21;;;;;;;34.25;22.98;;;;;;;7.63;59.28;93827.56;5042566;28;20033;-74
2021/01/06 04:53:37;;;;;;;33.15;20.17;;;;;;;7.55;58.76;93832.59;5001374;28;20460;-75
2021/01/06 04:56:26;;;;;;;30.17;20.30;;;;;;;7.59;59.22;93817.88;4972305;28;20047;-75
2021/01/06 04:58:57;;;;;;;32.47;21.00;;;;;;;7.62;59.34;93819.97;5041937;28;20040;-75
2021/01/06 05:01:38;;;;;;;53.70;31.13;;;;;;;7.63;59.71;93824.16;5049385;28;20025;-75
2021/01/06 05:04:34;;;;;;;34.25;22.42;;;;;;;7.62;59.06;93825.22;5044252;28;20048;-74
2021/01/06 05:07:04;;;;;;;23.98;17.65;;;;;;;7.59;58.37;93825.75;5028632;28;20041;-74
2021/01/06 05:09:39;;;;;;;28.92;18.55;;;;;;;7.57;58.73;93817.38;5048219;28;20041;-75
2021/01/06 05:12:30;;;;;;;30.80;20.67;;;;;;;7.56;59.26;93819.19;5028566;28;20037;-75
2021/01/06 05:15:21;;;;;;;40.83;24.60;;;;;;;7.59;58.96;93823.91;5044218;28;20060;-75
2021/01/06 05:17:46;;;;;;;32.95;22.33;;;;;;;7.64;58.37;93817.84;5044761;28;20040;-75
2021/01/06 05:20:12;;;;;;;32.60;20.38;;;;;;;7.62;58.10;93814.72;5029809;28;20702;-74
2021/01/06 05:22:37;;;;;;;28.75;20.73;;;;;;;7.65;58.13;93803.66;5045613;28;20748;-75
2021/01/06 05:25:04;;;;;;;41.85;25.65;;;;;;;7.70;58.17;93822.03;5046130;28;20029;-75
2021/01/06 05:27:38;;;;;;;29.35;19.52;;;;;;;7.61;57.91;93810.50;5046641;28;20036;-74
2021/01/06 05:30:20;;;;;;;34.95;22.20;;;;;;;7.58;58.75;93792.63;5036840;28;20095;-75
2021/01/06 05:32:46;;;;;;;38.35;23.92;;;;;;;7.61;58.79;93813.13;5048937;28;20040;-75
2021/01/06 05:35:19;;;;;;;44.65;25.25;;;;;;;7.68;58.18;93817.03;5050486;28;20396;-75
2021/01/06 05:37:51;;;;;;;129.43;55.92;;;;;;;7.70;57.92;93816.78;5046627;28;20135;-74
2021/01/06 05:40:17;;;;;;;42.97;22.48;;;;;;;7.74;58.17;93837.00;5050723;28;20087;-74
2021/01/06 05:42:50;;;;;;;47.38;25.65;;;;;;;7.77;57.93;93844.34;5032520;28;20128;-74
2021/01/06 05:45:19;;;;;;;57.80;36.20;;;;;;;7.78;57.66;93843.31;5050411;28;20162;-74
2021/01/06 05:47:55;;;;;;;31.20;18.55;;;;;;;7.77;57.40;93831.19;5048532;28;20063;-74
2021/01/06 05:50:28;;;;;;;30.52;18.48;;;;;;;7.81;57.46;93844.63;5051871;28;20033;-74
2021/01/06 05:53:15;;;;;;;32.28;18.90;;;;;;;7.88;58.15;93857.47;5049194;28;20055;-75
2021/01/06 05:55:44;;;;;;;30.58;19.20;;;;;;;7.76;57.83;93839.38;5037906;28;20479;-75
2021/01/06 05:58:16;;;;;;;40.63;23.33;;;;;;;7.79;58.15;93851.97;5051337;28;20041;-75
2021/01/06 06:01:04;;;;;;;24.15;16.73;;;;;;;7.71;57.77;93855.19;5048604;28;20425;-74
2021/01/06 06:03:50;;;;;;;30.52;18.42;;;;;;;7.76;57.83;93857.78;5033323;28;20040;-75
2021/01/06 06:06:32;;;;;;;28.88;16.98;;;;;;;7.68;57.38;93856.50;5032244;28;20095;-75
2021/01/06 06:09:10;;;;;;;24.83;15.93;;;;;;;7.66;57.30;93848.09;5047759;28;20047;-74
2021/01/06 06:12:13;;;;;;;26.30;17.38;;;;;;;7.81;57.61;93863.03;5036147;28;20098;-75
2021/01/06 06:15:07;;;;;;;41.53;26.33;;;;;;;7.79;57.64;93863.28;5052779;28;20067;-74
2021/01/06 06:17:36;;;;;;;39.17;21.60;;;;;;;7.80;57.45;93856.19;5047122;28;20057;-74
2021/01/06 06:20:19;;;;;;;24.75;16.48;;;;;;;7.84;57.05;93855.38;5048935;28;20025;-75
2021/01/06 06:23:21;;;;;;;22.25;15.20;;;;;;;7.90;56.78;93848.25;5048707;28;20032;-75
2021/01/06 06:26:32;;;;;;;28.65;17.77;;;;;;;7.92;56.67;93855.88;5028916;28;20083;-74
2021/01/06 06:29:21;;;;;;;26.30;17.98;;;;;;;7.86;56.75;93857.75;5010165;28;20048;-74
2021/01/06 06:31:51;;;;;;;28.38;17.50;;;;;;;7.90;57.09;93850.88;5032957;28;20136;-75
2021/01/06 06:34:24;;;;;;;25.60;16.75;;;;;;;7.91;57.33;93859.56;5036753;28;20029;-74
2021/01/06 06:36:50;;;;;;;47.05;24.38;;;;;;;7.92;57.45;93866.38;5045897;28;20045;-75
2021/01/06 06:39:29;;;;;;;78.70;34.67;;;;;;;7.92;56.72;93861.13;5048872;28;20043;-74
2021/01/06 06:42:10;;;;;;;68.88;31.90;;;;;;;7.97;56.93;93867.16;5045096;28;20093;-74
2021/01/06 06:44:49;;;;;;;74.05;34.85;;;;;;;7.94;56.94;93883.50;5046712;28;20128;-75
2021/01/06 06:47:16;;;;;;;30.77;18.08;;;;;;;7.96;56.89;93884.03;5027956;28;20719;-75
2021/01/06 06:50:23;;;;;;;33.35;18.95;;;;;;;8.02;56.65;93871.59;5048465;28;20541;-75
2021/01/06 06:53:29;;;;;;;34.53;20.55;;;;;;;8.06;56.96;93883.94;5040449;28;20078;-75
2021/01/06 06:56:01;;;;;;;38.88;23.77;;;;;;;8.04;56.68;93896.63;5047495;28;20519;-74
2021/01/06 06:58:35;;;;;;;40.63;26.08;;;;;;;8.08;56.35;93892.38;5029518;28;20486;-75
2021/01/06 07:01:07;;;;;;;34.40;23.57;;;;;;;8.09;56.92;93888.69;5050380;28;20040;-74
2021/01/06 07:03:33;;;;;;;33.40;20.42;;;;;;;8.04;56.29;93891.34;5042594;28;20390;-75
2021/01/06 07:06:01;;;;;;;28.65;19.00;;;;;;;8.08;56.16;93873.16;5049840;28;20840;-74
2021/01/06 07:08:30;;;;;;;29.88;19.95;;;;;;;8.16;56.17;93878.63;5027681;28;20078;-75
2021/01/06 07:10:59;;;;;;;30.90;19.80;;;;;;;8.26;56.67;93891.75;5049271;28;20500;-75
2021/01/06 07:13:26;;;;;;;36.17;23.23;;;;;;;8.28;56.30;93889.66;5043485;28;20039;-75
2021/01/06 07:15:56;;;;;;;35.13;23.52;;;;;;;8.34;55.86;93881.75;5047244;28;20044;-75
2021/01/06 07:18:24;;;;;;;29.23;20.00;;;;;;;8.47;55.53;93894.31;5045685;28;20051;-75
2021/01/06 07:21:16;;;;;;;36.33;22.52;;;;;;;8.57;55.19;93886.34;5046216;28;20064;-74
2021/01/06 07:23:52;;;;;;;43.85;23.30;;;;;;;8.73;55.57;93913.38;5046218;28;20611;-75
2021/01/06 07:26:22;;;;;;;34.00;22.83;;;;;;;8.78;55.13;93884.38;5026751;28;20036;-74
2021/01/06 07:28:57;;;;;;;39.90;26.15;;;;;;;8.87;54.97;93904.59;5046111;28;20056;-75
2021/01/06 07:31:25;;;;;;;38.30;24.52;;;;;;;9.00;54.86;93913.72;5046431;28;20055;-74
2021/01/06 07:33:55;;;;;;;43.35;24.45;;;;;;;9.10;54.33;93909.16;5044824;28;20066;-75
2021/01/06 07:36:32;;;;;;;45.72;22.75;;;;;;;9.22;53.88;93894.81;5044690;28;20045;-75
2021/01/06 07:39:00;;;;;;;46.97;25.35;;;;;;;9.30;53.69;93910.81;5043594;28;20076;-75
2021/01/06 07:41:27;;;;;;;43.88;25.38;;;;;;;9.41;53.48;93903.63;5044679;28;20114;-75
2021/01/06 07:44:23;;;;;;;40.58;24.10;;;;;;;9.52;52.88;93926.22;5043221;28;20029;-74
2021/01/06 07:46:54;;;;;;;;;;;;;;;9.64;52.25;93934.50;5030033;28;20499;-75
2021/01/06 07:49:29;;;;;;;38.88;22.65;;;;;;;9.52;52.66;93918.28;5051206;28;20509;-75
2021/01/06 07:52:02;;;;;;;39.78;25.15;;;;;;;9.60;52.82;93917.69;5042474;28;20547;-75
2021/01/06 07:54:48;;;;;;;45.22;26.85;;;;;;;9.70;53.51;93916.78;5048308;28;20084;-74
2021/01/06 07:57:23;;;;;;;44.17;27.13;;;;;;;9.74;53.32;93918.59;5041760;28;20064;-76
2021/01/06 07:59:55;;;;;;;35.33;23.48;;;;;;;9.78;52.11;93940.69;5046251;28;20607;-76
2021/01/06 08:02:37;;;;;;;33.90;23.25;;;;;;;9.81;51.92;93923.53;5045738;28;20105;-75
2021/01/06 08:05:02;;;;;;;32.78;19.73;;;;;;;9.92;51.54;93928.41;5047679;28;20036;-75
2021/01/06 08:07:28;;;;;;;32.47;19.10;;;;;;;10.00;51.13;93916.47;5029289;28;20415;-77
2021/01/06 08:09:54;;;;;;;26.80;16.65;;;;;;;10.02;50.88;93918.84;5048830;28;20049;-76
2021/01/06 08:12:37;;;;;;;28.92;16.90;;;;;;;10.18;51.04;93928.16;5042035;28;20032;-76
2021/01/06 08:15:18;;;;;;;41.22;21.70;;;;;;;10.33;51.18;93925.34;5045941;28;20052;-76
2021/01/06 08:17:51;;;;;;;36.50;21.38;;;;;;;10.50;51.21;93940.72;5045975;28;20528;-76
2021/01/06 08:20:23;;;;;;;33.47;18.85;;;;;;;10.52;50.36;93934.06;5044706;28;20076;-76
2021/01/06 08:23:04;;;;;;;33.83;19.55;;;;;;;10.66;49.57;93929.66;5046990;28;20033;-76
2021/01/06 08:25:33;;;;;;;36.00;23.88;;;;;;;10.76;49.99;93949.88;5046775;28;20025;-76
2021/01/06 08:27:59;;;;;;;33.80;22.50;;;;;;;10.68;49.82;93916.94;5044269;28;20041;-76
2021/01/06 08:30:29;;;;;;;37.75;22.95;;;;;;;10.93;49.20;93946.75;5044991;28;20051;-76
2021/01/06 08:33:05;;;;;;;34.17;21.75;;;;;;;11.06;48.72;93944.16;5045196;28;20058;-75
2021/01/06 08:35:37;;;;;;;36.10;24.70;;;;;;;11.38;47.85;93937.31;5025901;28;20049;-76
2021/01/06 08:38:03;;;;;;;31.13;21.02;;;;;;;11.57;47.63;93943.38;5029131;28;20017;-76
2021/01/06 08:40:39;;;;;;;32.92;21.23;;;;;;;11.75;48.26;93944.41;5026022;28;20029;-76
2021/01/06 08:43:10;;;;;;;33.30;20.17;;;;;;;12.02;47.13;93931.22;5042829;28;20033;-76
2021/01/06 08:45:38;;;;;;;29.08;17.50;;;;;;;12.27;45.70;93928.03;5027039;28;20031;-76
2021/01/06 08:48:39;;;;;;;24.85;17.95;;;;;;;12.70;45.02;93954.22;5026592;28;20065;-76
2021/01/06 08:51:15;;;;;;;26.38;17.88;;;;;;;12.92;45.17;93930.41;5009748;28;20044;-76
2021/01/06 08:53:43;;;;;;;33.00;20.58;;;;;;;13.06;44.77;93936.44;5028073;28;20292;-76
2021/01/06 08:56:24;;;;;;;33.50;21.20;;;;;;;13.32;45.08;93934.81;5047224;28;20087;-76
2021/01/06 08:58:54;;;;;;;29.05;19.48;;;;;;;13.39;43.83;93913.94;5046656;28;20032;-76
2021/01/06 09:01:47;;;;;;;40.33;21.92;;;;;;;13.56;43.74;93931.06;5028287;28;20013;-76
2021/01/06 09:04:18;;;;;;;44.08;22.85;;;;;;;13.70;43.50;93913.97;5029980;28;20056;-76
2021/01/06 09:07:04;;;;;;;31.63;20.92;;;;;;;13.88;42.52;93925.44;5027336;28;20084;-76
2021/01/06 09:09:51;;;;;;;40.22;24.05;;;;;;;14.15;42.96;93945.75;5028026;28;20048;-76
2021/01/06 09:12:38;;;;;;;44.05;23.13;;;;;;;14.24;42.01;93917.31;5029557;28;20098;-76
2021/01/06 09:15:06;;;;;;;41.90;21.95;;;;;;;14.28;42.18;93913.75;5030640;28;20480;-76
2021/01/06 09:17:36;;;;;;;29.60;19.15;;;;;;;14.56;41.88;93929.50;5029741;28;20068;-75
2021/01/06 09:20:05;;;;;;;34.28;21.23;;;;;;;14.64;41.08;93926.06;5031214;28;20354;-76
2021/01/06 09:22:31;;;;;;;34.15;23.73;;;;;;;14.69;40.52;93897.44;5031908;28;20029;-75
2021/01/06 09:24:56;;;;;;;29.85;23.42;;;;;;;14.85;40.77;93916.41;5032177;28;20072;-76
2021/01/06 09:27:24;;;;;;;41.25;25.75;;;;;;;14.97;40.97;93908.56;5031897;28;20048;-76
2021/01/06 09:29:51;;;;;;;37.92;24.80;;;;;;;14.96;40.80;93890.25;5028823;28;20107;-76
2021/01/06 09:32:23;;;;;;;42.78;25.13;;;;;;;15.03;40.92;93896.69;5031945;28;20056;-76
2021/01/06 09:34:54;;;;;;;34.05;24.58;;;;;;;15.01;40.23;93882.91;5022391;28;20021;-76
2021/01/06 09:37:27;;;;;;;34.28;24.13;;;;;;;15.18;40.19;93888.22;5033737;28;20064;-76
2021/01/06 09:39:58;;;;;;;34.70;23.27;;;;;;;15.34;40.12;93895.72;5030566;28;20641;-76
2021/01/06 09:42:24;;;;;;;33.88;23.55;;;;;;;15.45;39.21;93888.97;5033072;28;20037;-76
2021/01/06 09:44:50;;;;;;;31.02;22.58;;;;;;;15.52;39.60;93870.66;5033084;28;20041;-76
2021/01/06 09:47:36;;;;;;;36.53;24.95;;;;;;;15.55;39.73;93880.66;5030864;28;20429;-76
2021/01/06 09:50:20;;;;;;;33.28;21.77;;;;;;;15.65;40.12;93888.31;5025159;28;20614;-76
2021/01/06 09:52:49;;;;;;;27.25;20.35;;;;;;;15.61;38.89;93863.44;5032578;28;20475;-76
2021/01/06 09:55:23;;;;;;;30.83;20.88;;;;;;;15.55;38.89;93848.72;5031540;28;20048;-76
2021/01/06 09:57:56;;;;;;;36.00;20.60;;;;;;;15.61;38.58;93852.78;5028113;28;20123;-76
2021/01/06 10:00:21;;;;;;;32.42;21.75;;;;;;;15.74;38.21;93843.78;5031622;28;20033;-76
2021/01/06 10:02:51;;;;;;;40.75;21.50;;;;;;;15.74;38.35;93829.69;5030133;28;20048;-76
2021/01/06 10:05:17;;;;;;;32.38;19.10;;;;;;;15.80;37.61;93839.84;5028627;28;20386;-76
2021/01/06 10:08:06;;;;;;;32.63;18.25;;;;;;;15.83;37.89;93825.13;5031862;28;20035;-76
2021/01/06 10:10:37;;;;;;;27.30;17.65;;;;;;;15.86;38.50;93833.25;5028715;28;20049;-76
2021/01/06 10:13:09;;;;;;;27.70;18.95;;;;;;;16.00;38.70;93827.69;5028178;28;20120;-75
2021/01/06 10:16:11;;;;;;;28.02;19.38;;;;;;;15.99;37.54;93818.91;5031748;28;20115;-76
2021/01/06 10:19:00;;;;;;;29.27;19.20;;;;;;;16.14;37.78;93832.81;5030587;28;20315;-76
2021/01/06 10:21:34;;;;;;;25.75;17.42;;;;;;;16.25;38.11;93840.13;5033454;28;20047;-76
2021/01/06 10:24:18;;;;;;;30.42;17.27;;;;;;;16.32;37.86;93831.63;5027973;28;20052;-76
2021/01/06 10:26:53;;;;;;;21.30;15.18;;;;;;;16.45;37.10;93822.59;5030633;28;20498;-76
2021/01/06 10:29:46;;;;;;;65.93;34.33;;;;;;;16.56;37.31;93820.31;5030722;28;20140;-76
2021/01/06 10:32:12;;;;;;;16.60;11.68;;;;;;;16.65;36.66;93819.19;5029849;28;20139;-77
2021/01/06 10:34:46;;;;;;;16.70;11.10;;;;;;;16.57;35.78;93806.66;5027993;28;20033;-76
2021/01/06 10:37:24;;;;;;;18.90;10.70;;;;;;;16.61;36.07;93820.16;5047635;28;20033;-76
2021/01/06 10:39:59;;;;;;;22.73;12.45;;;;;;;16.71;37.58;93825.88;5030514;28;20496;-76
2021/01/06 10:42:24;;;;;;;18.50;12.23;;;;;;;16.69;36.14;93806.75;5044347;28;20047;-76
2021/01/06 10:44:53;;;;;;;20.60;14.48;;;;;;;16.68;36.40;93809.75;5048225;28;20409;-76
2021/01/06 10:47:31;;;;;;;22.38;14.15;;;;;;;16.75;36.28;93813.47;5047251;28;20037;-76
2021/01/06 10:50:15;;;;;;;22.90;16.00;;;;;;;16.85;36.06;93773.03;5047362;28;20024;-77
2021/01/06 10:52:59;;;;;;;28.23;15.88;;;;;;;17.01;36.47;93775.06;5048836;28;20028;-76
2021/01/06 10:55:39;;;;;;;20.77;16.00;;;;;;;17.03;36.28;93748.84;5035059;28;20382;-76
2021/01/06 10:58:45;;;;;;;24.38;16.92;;;;;;;17.00;36.54;93733.47;5048900;28;20032;-75
2021/01/06 11:01:15;;;;;;;20.35;15.70;;;;;;;17.04;36.39;93748.50;5029090;28;20040;-76
2021/01/06 11:04:05;;;;;;;22.95;16.00;;;;;;;17.10;36.90;93747.19;5047400;28;20051;-76
2021/01/06 11:06:45;;;;;;;40.33;23.95;;;;;;;17.21;36.71;93744.88;5047860;28;20136;-76
2021/01/06 11:09:39;;;;;;;22.38;15.30;;;;;;;17.40;36.44;93739.78;5034125;28;20454;-76
2021/01/06 11:12:43;;;;;;;22.65;14.68;;;;;;;17.57;37.35;93722.78;5047114;28;20575;-76
2021/01/06 11:15:38;;;;;;;23.95;14.15;;;;;;;17.68;36.36;93714.03;5046967;28;20056;-76
2021/01/06 11:18:18;;;;;;;21.38;12.82;;;;;;;17.84;36.37;93710.69;5025315;28;20452;-76
2021/01/06 11:20:50;;;;;;;20.45;13.02;;;;;;;17.94;36.09;93719.00;5019132;28;20037;-76
2021/01/06 11:23:28;;;;;;;26.88;16.45;;;;;;;18.08;35.48;93716.00;5034609;28;20090;-76
2021/01/06 11:25:55;;;;;;;29.38;11.02;;;;;;;18.21;35.76;93703.38;5046286;28;20128;-77
2021/01/06 11:28:41;;;;;;;22.17;11.38;;;;;;;18.34;35.66;93704.91;5028982;28;20024;-76
2021/01/06 11:31:12;;;;;;;17.65;10.30;;;;;;;18.41;35.32;93710.47;5028147;28;20600;-76
2021/01/06 11:33:38;;;;;;;23.45;11.48;;;;;;;18.44;35.24;93710.56;5027199;28;20049;-76
2021/01/06 11:36:06;;;;;;;11.88;7.57;;;;;;;18.48;34.79;93690.03;5025481;28;20085;-76
2021/01/06 11:38:31;;;;;;;11.57;7.30;;;;;;;18.50;35.02;93698.50;5034780;28;20032;-76
2021/01/06 11:40:57;;;;;;;14.07;6.95;;;;;;;18.56;35.37;93705.22;5028245;28;20397;-76
2021/01/06 11:43:28;;;;;;;13.57;6.75;;;;;;;18.57;35.25;93692.56;5047808;28;20070;-76
2021/01/06 11:45:54;;;;;;;9.73;5.95;;;;;;;18.53;34.26;93689.00;5046277;28;20036;-75
2021/01/06 11:48:38;;;;;;;8.15;5.55;;;;;;;18.29;34.79;93700.56;5047524;28;20052;-75
2021/01/06 11:51:22;;;;;;;10.25;6.50;;;;;;;18.19;34.79;93701.03;5048064;28;20044;-77
2021/01/06 11:54:04;;;;;;;10.85;6.25;;;;;;;17.99;35.45;93694.72;5034782;28;20042;-76
2021/01/06 11:56:35;;;;;;;13.57;7.40;;;;;;;17.95;35.24;93701.84;5027277;28;20041;-76